createdAt,value
2017-09-24T00:00:25.022Z,22.33
2017-09-24T00:02:54.114Z,20.50
2017-09-24T00:05:23.190Z,18.60
2017-09-24T00:07:51.525Z,18.40
2017-09-24T00:10:19.842Z,17.80
2017-09-24T00:12:48.175Z,18.47
2017-09-24T00:15:17.254Z,19.33
2017-09-24T00:17:45.563Z,19.10
2017-09-24T00:20:13.864Z,19.17
2017-09-24T00:22:42.166Z,20.33
2017-09-24T00:25:10.492Z,17.63
2017-09-24T00:27:39.558Z,20.13
2017-09-24T00:30:07.864Z,18.47
2017-09-24T00:32:36.943Z,19.70
2017-09-24T00:35:05.274Z,22.00
2017-09-24T00:37:33.572Z,19.40
2017-09-24T00:40:01.887Z,18.03
2017-09-24T00:42:30.248Z,17.87
2017-09-24T00:44:58.584Z,20.10
2017-09-24T00:47:27.677Z,19.30
2017-09-24T00:49:56.766Z,17.80
2017-09-24T00:52:25.066Z,19.83
2017-09-24T00:54:54.190Z,18.87
2017-09-24T00:57:22.510Z,18.30
2017-09-24T00:59:50.826Z,19.30
2017-09-24T01:02:19.895Z,18.80
2017-09-24T01:04:48.215Z,18.40
2017-09-24T01:07:16.536Z,18.87
2017-09-24T01:09:44.856Z,19.23
2017-09-24T01:12:13.184Z,20.00
2017-09-24T01:14:41.507Z,21.30
2017-09-24T01:17:09.840Z,21.67
2017-09-24T01:19:38.193Z,20.43
2017-09-24T01:22:07.278Z,21.83
2017-09-24T01:24:35.607Z,19.00
2017-09-24T01:27:03.913Z,21.53
2017-09-24T01:29:32.241Z,20.70
2017-09-24T01:32:01.326Z,21.80
2017-09-24T01:34:29.628Z,20.53
2017-09-24T01:36:57.982Z,24.03
2017-09-24T01:39:26.306Z,20.97
2017-09-24T01:41:54.613Z,21.00
2017-09-24T01:44:22.936Z,20.30
2017-09-24T01:46:52.016Z,20.30
2017-09-24T01:49:20.348Z,23.57
2017-09-24T01:51:48.684Z,21.57
2017-09-24T01:54:17.001Z,20.63
2017-09-24T01:56:46.089Z,25.03
2017-09-24T01:59:15.176Z,26.70
2017-09-24T02:01:43.506Z,24.77
2017-09-24T02:04:11.822Z,21.63
2017-09-24T02:06:40.147Z,23.70
2017-09-24T02:09:08.483Z,25.73
2017-09-24T02:11:36.778Z,24.70
2017-09-24T02:14:05.094Z,24.70
2017-09-24T02:16:33.407Z,25.10
2017-09-24T02:19:01.727Z,25.73
2017-09-24T02:21:30.058Z,24.13
2017-09-24T02:23:58.389Z,26.10
2017-09-24T02:26:26.699Z,25.67
2017-09-24T02:28:55.766Z,28.17
2017-09-24T02:31:25.593Z,25.77
2017-09-24T02:33:53.903Z,30.37
2017-09-24T02:36:22.204Z,29.03
2017-09-24T02:38:50.533Z,27.10
2017-09-24T02:41:19.630Z,27.90
2017-09-24T02:43:47.936Z,30.80
2017-09-24T02:46:17.024Z,31.10
2017-09-24T02:48:46.101Z,35.63
2017-09-24T02:51:15.275Z,39.40
2017-09-24T02:53:43.591Z,37.80
2017-09-24T02:56:11.942Z,45.20
2017-09-24T02:58:40.262Z,40.43
2017-09-24T03:01:08.571Z,45.00
2017-09-24T03:03:36.884Z,45.37
2017-09-24T03:06:05.188Z,60.80
2017-09-24T03:08:33.559Z,60.10
2017-09-24T03:11:01.878Z,69.30
2017-09-24T03:13:30.978Z,74.80
2017-09-24T03:16:00.056Z,71.73
2017-09-24T03:18:28.364Z,79.17
2017-09-24T03:20:57.455Z,74.90
2017-09-24T03:23:26.530Z,90.67
2017-09-24T03:25:54.838Z,75.97
2017-09-24T03:28:23.940Z,73.60
2017-09-24T03:30:52.285Z,84.43
2017-09-24T03:33:20.593Z,79.27
2017-09-24T03:35:48.946Z,77.77
2017-09-24T03:38:17.248Z,96.20
2017-09-24T03:40:45.583Z,101.87
2017-09-24T03:43:13.933Z,108.20
2017-09-24T03:45:43.088Z,95.63
2017-09-24T03:48:11.403Z,89.77
2017-09-24T03:50:39.735Z,96.70
2017-09-24T03:53:08.058Z,87.40
2017-09-24T03:55:36.374Z,84.60
2017-09-24T03:58:04.667Z,98.63
2017-09-24T04:00:32.999Z,107.37
2017-09-24T04:03:01.322Z,93.83
2017-09-24T04:05:29.632Z,107.67
2017-09-24T04:07:58.003Z,109.13
2017-09-24T04:10:26.322Z,107.90
2017-09-24T04:12:54.634Z,104.50
2017-09-24T04:15:23.731Z,118.03
2017-09-24T04:17:53.562Z,114.47
2017-09-24T04:20:21.889Z,126.90
2017-09-24T04:22:50.210Z,119.27
2017-09-24T04:25:19.312Z,140.07
2017-09-24T04:27:48.431Z,115.70
2017-09-24T04:30:16.751Z,105.27
2017-09-24T04:32:45.056Z,106.67
2017-09-24T04:35:13.369Z,103.33
2017-09-24T04:37:42.458Z,113.20
2017-09-24T04:40:11.574Z,111.23
2017-09-24T04:42:39.886Z,108.90
2017-09-24T04:45:08.218Z,99.60
2017-09-24T04:47:37.332Z,97.10
2017-09-24T04:50:05.633Z,99.33
2017-09-24T04:52:33.952Z,101.40
2017-09-24T04:55:02.286Z,115.20
2017-09-24T04:57:30.605Z,109.57
2017-09-24T04:59:58.950Z,118.30
2017-09-24T05:02:27.270Z,110.70
2017-09-24T05:04:55.605Z,113.67
2017-09-24T05:07:23.920Z,117.07
2017-09-24T05:09:52.287Z,110.27
2017-09-24T05:12:20.645Z,144.97
2017-09-24T05:14:48.965Z,131.67
2017-09-24T05:17:17.289Z,140.27
2017-09-24T05:19:45.605Z,126.90
2017-09-24T05:22:13.930Z,149.60
2017-09-24T05:24:42.279Z,167.47
2017-09-24T05:27:10.595Z,146.93
2017-09-24T05:29:38.935Z,179.63
2017-09-24T05:32:07.258Z,165.30
2017-09-24T05:34:35.577Z,171.90
2017-09-24T05:37:04.662Z,161.47
2017-09-24T05:39:33.737Z,188.80
2017-09-24T05:42:02.092Z,185.37
2017-09-24T05:44:30.411Z,217.43
2017-09-24T05:46:58.741Z,195.33
2017-09-24T05:49:27.093Z,196.87
2017-09-24T05:51:56.189Z,182.93
2017-09-24T05:54:25.277Z,185.27
2017-09-24T05:56:53.609Z,222.40
2017-09-24T05:59:21.935Z,318.63
2017-09-24T06:01:50.329Z,234.43
2017-09-24T06:04:18.675Z,282.43
2017-09-24T06:06:46.992Z,325.80
2017-09-24T06:09:15.335Z,232.80
2017-09-24T06:11:43.648Z,416.53
2017-09-24T06:14:11.979Z,423.03
2017-09-24T06:16:40.300Z,384.57
2017-09-24T06:19:08.617Z,301.57
2017-09-24T06:21:37.720Z,304.23
2017-09-24T06:24:06.815Z,444.63
2017-09-24T06:26:35.937Z,359.73
2017-09-24T06:29:04.249Z,441.67
2017-09-24T06:31:32.581Z,391.90
2017-09-24T06:34:01.689Z,374.63
2017-09-24T06:36:30.763Z,375.57
2017-09-24T06:38:59.100Z,306.97
2017-09-24T06:41:27.456Z,451.50
2017-09-24T06:43:55.776Z,411.50
2017-09-24T06:46:24.102Z,393.73
2017-09-24T06:48:52.435Z,271.00
2017-09-24T06:51:20.769Z,300.60
2017-09-24T06:53:49.853Z,353.83
2017-09-24T06:56:18.208Z,340.67
2017-09-24T06:58:46.543Z,339.27
2017-09-24T07:01:15.646Z,203.10
2017-09-24T07:03:44.011Z,240.90
2017-09-24T07:06:13.112Z,185.00
2017-09-24T07:08:42.180Z,228.90
2017-09-24T07:11:10.501Z,177.47
2017-09-24T07:13:39.595Z,212.17
2017-09-24T07:16:08.669Z,171.00
2017-09-24T07:18:36.990Z,166.20
2017-09-24T07:21:05.320Z,171.23
2017-09-24T07:23:33.649Z,158.00
2017-09-24T07:26:01.982Z,264.57
2017-09-24T07:28:30.320Z,193.10
2017-09-24T07:30:58.661Z,147.60
2017-09-24T07:33:26.980Z,136.47
2017-09-24T07:35:56.092Z,174.93
2017-09-24T07:38:24.428Z,151.93
2017-09-24T07:40:52.806Z,262.40
2017-09-24T07:43:21.143Z,196.17
2017-09-24T07:45:49.493Z,137.73
2017-09-24T07:48:18.609Z,121.53
2017-09-24T07:50:46.944Z,103.23
2017-09-24T07:53:15.262Z,77.20
2017-09-24T07:55:44.376Z,111.57
2017-09-24T07:58:12.702Z,187.03
2017-09-24T08:00:41.040Z,107.07
2017-09-24T08:03:09.394Z,109.47
2017-09-24T08:05:37.728Z,137.33
2017-09-24T08:08:06.068Z,105.23
2017-09-24T08:10:35.171Z,71.20
2017-09-24T08:13:04.246Z,85.23
2017-09-24T08:15:32.564Z,108.33
2017-09-24T08:18:01.658Z,98.50
2017-09-24T08:20:30.762Z,59.87
2017-09-24T08:22:59.086Z,99.47
2017-09-24T08:25:27.407Z,120.90
2017-09-24T08:27:55.744Z,101.73
2017-09-24T08:30:24.106Z,136.57
2017-09-24T08:32:52.447Z,161.00
2017-09-24T08:35:20.779Z,117.50
2017-09-24T08:37:49.120Z,74.17
2017-09-24T08:40:17.441Z,86.23
2017-09-24T08:42:45.753Z,90.33
2017-09-24T08:45:14.168Z,66.07
2017-09-24T08:47:43.250Z,90.47
2017-09-24T08:50:11.580Z,70.17
2017-09-24T08:52:39.892Z,59.03
2017-09-24T08:55:08.226Z,58.93
2017-09-24T08:57:36.617Z,62.37
2017-09-24T09:00:04.944Z,71.53
2017-09-24T09:02:33.259Z,66.97
2017-09-24T09:05:02.349Z,66.30
2017-09-24T09:07:30.673Z,69.60
2017-09-24T09:09:59.014Z,64.80
2017-09-24T09:12:27.337Z,61.43
2017-09-24T09:14:55.680Z,68.87
2017-09-24T09:17:23.995Z,68.57
2017-09-24T09:19:52.329Z,72.10
2017-09-24T09:22:20.665Z,63.60
2017-09-24T09:24:49.051Z,70.23
2017-09-24T09:27:17.381Z,61.87
2017-09-24T09:29:45.726Z,63.73
2017-09-24T09:32:14.151Z,56.53
2017-09-24T09:35:00.347Z,57.87
2017-09-24T09:37:28.667Z,62.53
2017-09-24T09:39:56.977Z,61.17
2017-09-24T09:42:25.334Z,55.00
2017-09-24T09:44:53.665Z,57.57
2017-09-24T09:47:27.742Z,54.60
2017-09-24T09:49:56.093Z,51.60
2017-09-24T09:52:25.165Z,55.60
2017-09-24T09:54:53.518Z,50.83
2017-09-24T09:57:21.863Z,52.37
2017-09-24T09:59:50.216Z,43.80
2017-09-24T10:02:18.535Z,48.40
2017-09-24T10:04:46.855Z,50.00
2017-09-24T10:07:32.856Z,48.67
2017-09-24T10:10:16.733Z,48.50
2017-09-24T10:12:45.050Z,50.60
2017-09-24T10:15:13.372Z,50.07
2017-09-24T10:17:42.444Z,49.40
2017-09-24T10:20:10.771Z,51.43
2017-09-24T10:22:39.119Z,52.23
2017-09-24T10:25:07.449Z,54.87
2017-09-24T10:27:35.759Z,54.13
2017-09-24T10:30:21.917Z,56.33
2017-09-24T10:32:50.247Z,56.30
2017-09-24T10:35:18.567Z,56.43
2017-09-24T10:37:47.652Z,55.20
2017-09-24T10:40:16.742Z,53.67
2017-09-24T10:42:45.071Z,59.50
2017-09-24T10:45:13.384Z,54.10
2017-09-24T10:47:41.709Z,55.30
2017-09-24T10:50:10.821Z,55.40
2017-09-24T10:52:39.141Z,55.70
2017-09-24T10:55:07.453Z,58.87
2017-09-24T10:57:36.561Z,57.40
2017-09-24T11:00:05.643Z,59.37
2017-09-24T11:02:33.967Z,61.13
2017-09-24T11:05:02.300Z,67.87
2017-09-24T11:07:30.628Z,64.60
2017-09-24T11:09:58.952Z,63.57
2017-09-24T11:12:27.282Z,65.93
2017-09-24T11:14:56.363Z,61.77
2017-09-24T11:17:25.457Z,64.27
2017-09-24T11:19:53.769Z,71.60
2017-09-24T11:22:22.094Z,65.93
2017-09-24T11:24:50.429Z,66.67
2017-09-24T11:27:18.736Z,70.17
2017-09-24T11:29:47.048Z,75.33
2017-09-24T11:32:15.379Z,68.87
2017-09-24T11:34:43.693Z,68.40
2017-09-24T11:37:12.008Z,63.20
2017-09-24T11:39:40.316Z,61.23
2017-09-24T11:42:08.638Z,63.23
2017-09-24T11:44:36.968Z,68.83
2017-09-24T11:47:06.024Z,65.90
2017-09-24T11:49:34.350Z,64.43
2017-09-24T11:52:03.443Z,62.80
2017-09-24T11:54:32.546Z,71.00
2017-09-24T11:57:01.666Z,64.93
2017-09-24T11:59:29.977Z,67.97
2017-09-24T12:01:58.294Z,73.40
2017-09-24T12:04:26.615Z,91.30
2017-09-24T12:06:54.927Z,68.27
2017-09-24T12:09:23.254Z,71.87
2017-09-24T12:11:52.337Z,71.37
2017-09-24T12:14:20.666Z,66.97
2017-09-24T12:16:49.001Z,62.57
2017-09-24T12:19:17.318Z,70.70
2017-09-24T12:21:45.631Z,64.83
2017-09-24T12:24:13.950Z,65.67
2017-09-24T12:26:42.298Z,67.47
2017-09-24T12:29:10.602Z,64.17
2017-09-24T12:31:38.941Z,69.90
2017-09-24T12:34:07.287Z,59.03
2017-09-24T12:36:36.370Z,69.87
2017-09-24T12:39:04.692Z,78.03
2017-09-24T12:41:33.011Z,77.03
2017-09-24T12:44:01.337Z,66.47
2017-09-24T12:46:29.692Z,61.67
2017-09-24T12:48:58.003Z,63.03
2017-09-24T12:51:27.130Z,62.43
2017-09-24T12:53:55.465Z,61.93
2017-09-24T12:56:24.542Z,66.37
2017-09-24T12:58:52.875Z,66.30
2017-09-24T13:01:21.194Z,64.47
2017-09-24T13:03:50.291Z,64.77
2017-09-24T13:06:18.637Z,62.50
2017-09-24T13:08:46.936Z,81.00
2017-09-24T13:11:15.255Z,66.93
2017-09-24T13:13:43.580Z,67.57
2017-09-24T13:16:11.903Z,62.87
2017-09-24T13:18:40.228Z,63.93
2017-09-24T13:21:09.294Z,63.03
2017-09-24T13:23:37.612Z,62.07
2017-09-24T13:26:06.711Z,63.83
2017-09-24T13:28:35.801Z,66.97
2017-09-24T13:31:04.880Z,77.90
2017-09-24T13:33:33.248Z,61.60
2017-09-24T13:36:01.561Z,63.77
2017-09-24T13:38:29.884Z,65.53
2017-09-24T13:40:58.209Z,64.60
2017-09-24T13:43:28.125Z,63.23
2017-09-24T13:45:56.447Z,61.53
2017-09-24T13:48:24.770Z,60.57
2017-09-24T13:50:53.097Z,61.80
2017-09-24T13:53:22.184Z,63.47
2017-09-24T13:55:50.497Z,63.03
2017-09-24T13:58:18.825Z,66.00
2017-09-24T14:00:47.139Z,63.43
2017-09-24T14:03:16.203Z,62.00
2017-09-24T14:05:44.522Z,63.73
2017-09-24T14:08:14.763Z,65.53
2017-09-24T14:10:43.062Z,61.47
2017-09-24T14:13:11.351Z,60.83
2017-09-24T14:15:39.732Z,62.53
2017-09-24T14:18:08.038Z,62.93
2017-09-24T14:20:36.327Z,59.03
2017-09-24T14:23:04.667Z,64.23
2017-09-24T14:25:32.967Z,59.97
2017-09-24T14:28:01.282Z,60.20
2017-09-24T14:30:30.364Z,58.67
2017-09-24T14:32:58.727Z,61.47
2017-09-24T14:35:27.038Z,62.13
2017-09-24T14:37:55.361Z,60.23
2017-09-24T14:40:23.663Z,58.20
2017-09-24T14:42:51.982Z,61.10
2017-09-24T14:45:20.309Z,57.43
2017-09-24T14:47:48.615Z,60.20
2017-09-24T14:50:16.914Z,58.57
2017-09-24T14:52:45.240Z,57.20
2017-09-24T14:55:14.324Z,59.70
2017-09-24T14:57:42.634Z,58.57
2017-09-24T15:00:10.936Z,60.70
2017-09-24T15:02:39.258Z,61.63
2017-09-24T15:05:07.575Z,59.33
2017-09-24T15:07:35.898Z,53.90
2017-09-24T15:10:04.219Z,55.20
2017-09-24T15:12:33.298Z,51.00
2017-09-24T15:15:01.632Z,51.30
2017-09-24T15:17:29.952Z,50.07
2017-09-24T15:19:58.300Z,48.03
2017-09-24T15:22:26.619Z,48.23
2017-09-24T15:24:54.958Z,49.00
2017-09-24T15:27:23.299Z,49.77
2017-09-24T15:29:51.653Z,48.60
2017-09-24T15:32:19.992Z,47.63
2017-09-24T15:34:49.093Z,46.30
2017-09-24T15:37:18.178Z,46.37
2017-09-24T15:39:47.288Z,46.37
2017-09-24T15:42:16.450Z,46.27
2017-09-24T15:44:44.762Z,44.87
2017-09-24T15:47:13.870Z,45.73
2017-09-24T15:49:42.969Z,45.10
2017-09-24T15:52:12.069Z,43.63
2017-09-24T15:54:41.190Z,45.20
2017-09-24T15:57:09.496Z,44.80
2017-09-24T15:59:37.807Z,43.50
2017-09-24T16:02:06.134Z,44.33
2017-09-24T16:04:34.466Z,42.13
2017-09-24T16:07:02.792Z,45.80
2017-09-24T16:09:31.307Z,41.50
2017-09-24T16:11:59.627Z,42.33
2017-09-24T16:14:27.953Z,41.67
2017-09-24T16:16:56.268Z,38.50
2017-09-24T16:19:24.588Z,41.60
2017-09-24T16:21:53.668Z,44.47
2017-09-24T16:24:21.991Z,42.60
2017-09-24T16:26:50.304Z,42.77
2017-09-24T16:29:19.204Z,42.40
2017-09-24T16:31:47.501Z,43.33
2017-09-24T16:34:15.825Z,42.63
2017-09-24T16:36:44.148Z,45.07
2017-09-24T16:39:12.461Z,44.50
2017-09-24T16:41:41.547Z,42.33
2017-09-24T16:44:09.925Z,43.07
2017-09-24T16:46:38.269Z,42.50
2017-09-24T16:49:06.600Z,43.40
2017-09-24T16:51:35.699Z,39.27
2017-09-24T16:54:04.013Z,39.83
2017-09-24T16:56:32.328Z,42.87
2017-09-24T16:59:00.647Z,43.97
2017-09-24T17:01:28.963Z,44.37
2017-09-24T17:03:57.298Z,41.80
2017-09-24T17:06:25.602Z,42.67
2017-09-24T17:08:54.679Z,43.33
2017-09-24T17:11:22.997Z,43.77
2017-09-24T17:13:52.075Z,43.10
2017-09-24T17:16:20.397Z,43.20
2017-09-24T17:18:48.729Z,42.87
2017-09-24T17:21:17.825Z,40.17
2017-09-24T17:23:46.153Z,43.57
2017-09-24T17:26:14.479Z,40.60
2017-09-24T17:28:42.807Z,44.67
2017-09-24T17:31:11.139Z,43.07
2017-09-24T17:33:39.450Z,43.20
2017-09-24T17:36:07.763Z,42.80
2017-09-24T17:38:36.137Z,42.13
2017-09-24T17:41:04.458Z,42.07
2017-09-24T17:43:32.781Z,41.53
2017-09-24T17:46:01.115Z,42.17
2017-09-24T17:48:29.428Z,43.87
2017-09-24T17:50:57.753Z,42.17
2017-09-24T17:53:26.067Z,43.43
2017-09-24T17:55:54.396Z,42.87
2017-09-24T17:58:23.553Z,40.77
2017-09-24T18:00:51.863Z,43.27
2017-09-24T18:03:20.952Z,41.27
2017-09-24T18:05:49.287Z,43.03
2017-09-24T18:08:17.595Z,43.30
2017-09-24T18:10:45.915Z,43.50
2017-09-24T18:13:15.034Z,45.37
2017-09-24T18:15:44.097Z,42.77
2017-09-24T18:18:12.397Z,43.93
2017-09-24T18:20:41.479Z,42.83
2017-09-24T18:23:09.795Z,43.93
2017-09-24T18:25:38.881Z,47.30
2017-09-24T18:28:07.967Z,44.90
2017-09-24T18:30:36.284Z,44.37
2017-09-24T18:33:04.584Z,44.30
2017-09-24T18:35:32.886Z,44.03
2017-09-24T18:38:01.195Z,45.30
2017-09-24T18:40:29.531Z,47.10
2017-09-24T18:42:57.852Z,46.80
2017-09-24T18:45:26.296Z,47.00
2017-09-24T18:47:54.607Z,44.57
2017-09-24T18:50:23.119Z,45.20
2017-09-24T18:52:51.437Z,48.80
2017-09-24T18:55:19.878Z,48.27
2017-09-24T18:57:48.986Z,43.77
2017-09-24T19:00:18.071Z,44.77
2017-09-24T19:02:46.415Z,47.03
2017-09-24T19:05:15.089Z,45.13
2017-09-24T19:07:43.683Z,42.63
2017-09-24T19:10:12.030Z,41.87
2017-09-24T19:12:41.099Z,42.57
2017-09-24T19:15:09.465Z,45.03
2017-09-24T19:17:37.823Z,43.27
2017-09-24T19:20:06.428Z,45.87
2017-09-24T19:22:36.547Z,43.77
2017-09-24T19:25:05.223Z,44.20
2017-09-24T19:27:33.915Z,48.07
2017-09-24T19:30:02.499Z,44.77
2017-09-24T19:32:30.911Z,44.00
2017-09-24T19:34:59.286Z,44.80
2017-09-24T19:37:27.707Z,43.50
2017-09-24T19:39:57.111Z,48.67
2017-09-24T19:42:25.802Z,46.70
2017-09-24T19:44:54.885Z,47.70
2017-09-24T19:47:23.537Z,48.40
2017-09-24T19:49:52.152Z,48.80
2017-09-24T19:52:20.557Z,48.97
2017-09-24T19:54:48.930Z,43.30
2017-09-24T19:57:17.238Z,50.20
2017-09-24T19:59:46.320Z,47.40
2017-09-24T20:02:14.635Z,53.20
2017-09-24T20:04:43.801Z,50.90
2017-09-24T20:07:12.220Z,51.80
2017-09-24T20:09:41.339Z,48.50
2017-09-24T20:12:09.666Z,49.77
2017-09-24T20:14:37.973Z,49.20
2017-09-24T20:17:07.073Z,49.23
2017-09-24T20:19:36.158Z,50.13
2017-09-24T20:22:04.488Z,46.47
2017-09-24T20:24:32.814Z,44.27
2017-09-24T20:27:01.118Z,44.83
2017-09-24T20:29:30.254Z,43.73
2017-09-24T20:31:58.555Z,46.80
2017-09-24T20:34:26.881Z,46.33
2017-09-24T20:36:55.961Z,49.10
2017-09-24T20:39:24.261Z,47.30
2017-09-24T20:41:53.356Z,45.30
2017-09-24T20:44:23.271Z,50.73
2017-09-24T20:46:51.597Z,43.90
2017-09-24T20:49:19.914Z,46.73
2017-09-24T20:51:48.218Z,45.80
2017-09-24T20:54:17.320Z,55.70
2017-09-24T20:56:46.410Z,50.70
2017-09-24T20:59:14.736Z,49.03
2017-09-24T21:01:43.058Z,48.93
2017-09-24T21:04:11.365Z,44.70
2017-09-24T21:06:40.448Z,46.00
2017-09-24T21:09:08.752Z,46.77
2017-09-24T21:11:37.834Z,41.93
2017-09-24T21:14:06.151Z,50.20
2017-09-24T21:16:34.459Z,48.20
2017-09-24T21:19:02.766Z,44.07
2017-09-24T21:21:31.784Z,44.67
2017-09-24T21:24:00.855Z,44.33
2017-09-24T21:26:29.201Z,42.97
2017-09-24T21:28:57.497Z,47.93
2017-09-24T21:31:25.811Z,44.83
2017-09-24T21:33:55.638Z,42.30
2017-09-24T21:36:23.945Z,46.53
2017-09-24T21:38:53.024Z,44.70
2017-09-24T21:41:21.361Z,42.90
2017-09-24T21:43:49.669Z,45.23
2017-09-24T21:46:18.032Z,44.13
2017-09-24T21:48:46.336Z,46.50
2017-09-24T21:51:14.629Z,43.20
2017-09-24T21:53:42.956Z,45.90
2017-09-24T21:56:11.250Z,44.07
2017-09-24T21:58:39.555Z,43.50
2017-09-24T22:01:07.935Z,44.20
2017-09-24T22:03:36.241Z,41.70
2017-09-24T22:06:05.320Z,41.50
2017-09-24T22:08:33.625Z,46.73
2017-09-24T22:11:02.153Z,42.83
2017-09-24T22:13:30.466Z,44.70
2017-09-24T22:15:58.804Z,45.87
2017-09-24T22:18:27.122Z,40.10
2017-09-24T22:20:55.437Z,47.70
2017-09-24T22:23:23.750Z,44.57
2017-09-24T22:25:52.052Z,43.67
2017-09-24T22:28:20.372Z,42.37
2017-09-24T22:30:49.467Z,40.93
2017-09-24T22:33:17.793Z,43.13
2017-09-24T22:35:46.096Z,43.17
2017-09-24T22:38:14.418Z,45.87
2017-09-24T22:40:42.745Z,44.30
2017-09-24T22:43:11.059Z,42.50
2017-09-24T22:45:39.372Z,42.03
2017-09-24T22:48:07.707Z,41.47
2017-09-24T22:50:36.003Z,44.33
2017-09-24T22:53:04.318Z,41.97
2017-09-24T22:55:32.758Z,42.23
2017-09-24T22:58:01.066Z,41.77
2017-09-24T23:00:29.422Z,41.40
2017-09-24T23:02:57.721Z,44.73
2017-09-24T23:05:26.032Z,43.47
2017-09-24T23:07:55.101Z,45.13
2017-09-24T23:10:23.430Z,44.10
2017-09-24T23:12:51.739Z,45.40
2017-09-24T23:15:20.075Z,47.33
2017-09-24T23:17:49.154Z,44.63
2017-09-24T23:20:17.502Z,42.60
2017-09-24T23:22:45.802Z,43.70
2017-09-24T23:25:14.129Z,45.97
2017-09-24T23:27:43.237Z,45.23
2017-09-24T23:30:12.337Z,46.07
2017-09-24T23:32:40.665Z,48.93
2017-09-24T23:35:08.973Z,48.07
2017-09-24T23:37:38.795Z,46.10
2017-09-24T23:40:07.103Z,48.53
2017-09-24T23:42:35.416Z,48.20
2017-09-24T23:45:03.724Z,48.20
2017-09-24T23:47:32.063Z,44.87
2017-09-24T23:50:00.363Z,52.87
2017-09-24T23:52:28.705Z,49.20
2017-09-24T23:54:57.783Z,53.67
2017-09-24T23:57:26.101Z,50.83
2017-09-24T23:59:54.411Z,46.00
